Terminal Aerodrome Forecast
Issued by NWS

Home | Current Version | Previous Version | Text Only | Print | Product List | Glossary On
Versions: 1 2 3 4 5 6 7 8 9 10 11 12 13 14 15 16 17 18 19 20 21
692
FTUS42 KTBW 061903 AAA
TAFLAL
TAF AMD
KLAL 061903Z 0619/0718 04007KT P6SM -RA SCT030 OVC050
      TEMPO 0619/0622 4SM -RA BR BKN030
     FM062200 35006KT P6SM -RA SCT015 OVC020
     FM070400 33010KT P6SM SCT007 BKN015
     FM071100 33012G18KT P6SM SCT015 BKN100=

USA.gov is the U.S. government's official web portal to all federal, state and local government web resources and services.